Terminal Aerodrome Forecast
Issued by NWS

Current Version | Previous Version | Text Only | Print | Product List | Glossary On
Versions: 1 2 3 4 5 6 7 8 9 10 11 12 13 14 15 16 17 18 19
000
FTUS46 KMTR 310500
TAFMRY
TAF
KMRY 310520Z 3106/0106 24005KT P6SM SCT005
     FM310800 10003KT 1SM BR OVC002
     FM311700 29009KT P6SM FEW200
     FM010300 24004KT P6SM FEW200=

USA.gov is the U.S. government's official web portal to all federal, state and local government web resources and services.